sensor_id;sensor_type;location;lat;lon;timestamp;pressure;altitude;pressure_sealevel;temperature;humidity
14293;BME280;62290;59.420;17.842;2023-03-15T00:02:22;98725.59;;;25.85;18.58
14293;BME280;62290;59.420;17.842;2023-03-15T00:04:50;98748.13;;;25.99;19.05
14293;BME280;62290;59.420;17.842;2023-03-15T00:07:20;98748.13;;;25.99;18.95
14293;BME280;62290;59.420;17.842;2023-03-15T00:09:51;98754.56;;;25.98;18.66
14293;BME280;62290;59.420;17.842;2023-03-15T00:12:21;98761.00;;;25.97;18.53
14293;BME280;62290;59.420;17.842;2023-03-15T00:14:50;98761.19;;;25.95;19.05
14293;BME280;62290;59.420;17.842;2023-03-15T00:17:18;98764.91;;;25.94;18.49
14293;BME280;62290;59.420;17.842;2023-03-15T00:19:48;98768.44;;;25.95;19.00
14293;BME280;62290;59.420;17.842;2023-03-15T00:22:16;98773.19;;;25.93;18.98
14293;BME280;62290;59.420;17.842;2023-03-15T00:24:44;98780.47;;;25.92;18.87
14293;BME280;62290;59.420;17.842;2023-03-15T00:27:12;98784.19;;;25.91;18.80
14293;BME280;62290;59.420;17.842;2023-03-15T00:29:42;98786.06;;;25.91;18.50
14293;BME280;62290;59.420;17.842;2023-03-15T00:32:10;98771.16;;;25.73;18.40
14293;BME280;62290;59.420;17.842;2023-03-15T00:34:38;98794.16;;;25.91;18.32
14293;BME280;62290;59.420;17.842;2023-03-15T00:37:06;98778.63;;;25.71;18.92
14293;BME280;62290;59.420;17.842;2023-03-15T00:39:35;98813.22;;;25.89;18.27
14293;BME280;62290;59.420;17.842;2023-03-15T00:42:07;98808.88;;;25.88;18.40
14293;BME280;62290;59.420;17.842;2023-03-15T00:44:35;98816.13;;;25.88;18.62
14293;BME280;62290;59.420;17.842;2023-03-15T00:47:04;98817.81;;;25.89;18.65
14293;BME280;62290;59.420;17.842;2023-03-15T00:49:32;98826.09;;;25.87;18.24
14293;BME280;62290;59.420;17.842;2023-03-15T00:52:00;98822.53;;;25.87;18.55
14293;BME280;62290;59.420;17.842;2023-03-15T00:54:29;98831.47;;;25.87;18.64
14293;BME280;62290;59.420;17.842;2023-03-15T00:56:59;98810.34;;;25.69;18.72
14293;BME280;62290;59.420;17.842;2023-03-15T00:59:28;98834.38;;;25.86;18.19
14293;BME280;62290;59.420;17.842;2023-03-15T01:02:00;98838.94;;;25.85;18.55
14293;BME280;62290;59.420;17.842;2023-03-15T01:04:30;98852.22;;;25.87;18.27
14293;BME280;62290;59.420;17.842;2023-03-15T01:06:58;98850.56;;;25.86;18.39
14293;BME280;62290;59.420;17.842;2023-03-15T01:09:26;98859.50;;;25.86;18.45
14293;BME280;62290;59.420;17.842;2023-03-15T01:11:56;98860.31;;;25.87;18.30
14293;BME280;62290;59.420;17.842;2023-03-15T01:14:24;98864.91;;;25.86;18.37
14293;BME280;62290;59.420;17.842;2023-03-15T01:16:52;98871.94;;;25.87;18.27
14293;BME280;62290;59.420;17.842;2023-03-15T01:19:20;98877.34;;;25.87;17.93
14293;BME280;62290;59.420;17.842;2023-03-15T01:21:49;98882.75;;;25.87;17.85
14293;BME280;62290;59.420;17.842;2023-03-15T01:24:17;98882.50;;;25.82;18.35
14293;BME280;62290;59.420;17.842;2023-03-15T01:26:47;98889.38;;;25.85;18.31
14293;BME280;62290;59.420;17.842;2023-03-15T01:29:15;98899.16;;;25.86;18.27
14293;BME280;62290;59.420;17.842;2023-03-15T01:31:43;98876.19;;;25.75;17.75
14293;BME280;62290;59.420;17.842;2023-03-15T01:34:11;98900.16;;;25.85;18.12
14293;BME280;62290;59.420;17.842;2023-03-15T01:36:39;98902.84;;;25.85;18.25
14293;BME280;62290;59.420;17.842;2023-03-15T01:39:09;98907.03;;;25.87;17.91
14293;BME280;62290;59.420;17.842;2023-03-15T01:41:42;98910.94;;;25.85;18.16
14293;BME280;62290;59.420;17.842;2023-03-15T01:44:12;98902.84;;;25.85;17.80
14293;BME280;62290;59.420;17.842;2023-03-15T01:46:42;98914.50;;;25.85;17.82
14293;BME280;62290;59.420;17.842;2023-03-15T01:49:18;98912.63;;;25.86;17.95
14293;BME280;62290;59.420;17.842;2023-03-15T01:51:52;98917.19;;;25.85;17.73
14293;BME280;62290;59.420;17.842;2023-03-15T01:54:26;98915.50;;;25.84;17.97
14293;BME280;62290;59.420;17.842;2023-03-15T01:56:58;98921.75;;;25.85;17.51
14293;BME280;62290;59.420;17.842;2023-03-15T01:59:30;98917.19;;;25.85;17.58
14293;BME280;62290;59.420;17.842;2023-03-15T02:01:59;98922.59;;;25.85;17.45
14293;BME280;62290;59.420;17.842;2023-03-15T02:04:29;98927.97;;;25.85;17.48
14293;BME280;62290;59.420;17.842;2023-03-15T02:07:01;98930.88;;;25.84;17.93
14293;BME280;62290;59.420;17.842;2023-03-15T02:09:39;98930.88;;;25.84;17.83
14293;BME280;62290;59.420;17.842;2023-03-15T02:12:11;98936.28;;;25.84;17.89
14293;BME280;62290;59.420;17.842;2023-03-15T02:14:39;98935.25;;;25.85;17.80
14293;BME280;62290;59.420;17.842;2023-03-15T02:17:13;98948.72;;;25.85;17.45
14293;BME280;62290;59.420;17.842;2023-03-15T02:19:49;98929.94;;;25.76;17.33
14293;BME280;62290;59.420;17.842;2023-03-15T02:22:27;98956.66;;;25.86;17.78
14293;BME280;62290;59.420;17.842;2023-03-15T02:25:05;98955.59;;;25.87;17.71
14293;BME280;62290;59.420;17.842;2023-03-15T02:27:39;98963.06;;;25.85;17.62
14293;BME280;62290;59.420;17.842;2023-03-15T02:30:09;98964.75;;;25.86;17.57
14293;BME280;62290;59.420;17.842;2023-03-15T02:32:40;98969.31;;;25.86;17.75
14293;BME280;62290;59.420;17.842;2023-03-15T02:35:09;98970.16;;;25.86;17.69
14293;BME280;62290;59.420;17.842;2023-03-15T02:37:37;98977.19;;;25.87;17.32
14293;BME280;62290;59.420;17.842;2023-03-15T02:40:16;98972.56;;;25.81;17.41
14293;BME280;62290;59.420;17.842;2023-03-15T02:42:47;98984.44;;;25.87;17.81
14293;BME280;62290;59.420;17.842;2023-03-15T02:45:18;98980.94;;;25.86;17.68
14293;BME280;62290;59.420;17.842;2023-03-15T02:47:46;98992.53;;;25.87;17.72
14293;BME280;62290;59.420;17.842;2023-03-15T02:50:16;98988.84;;;25.88;17.36
14293;BME280;62290;59.420;17.842;2023-03-15T02:52:44;98991.72;;;25.86;17.58
14293;BME280;62290;59.420;17.842;2023-03-15T02:55:12;98993.59;;;25.86;17.32
14293;BME280;62290;59.420;17.842;2023-03-15T02:57:40;98997.13;;;25.86;17.65
14293;BME280;62290;59.420;17.842;2023-03-15T03:00:11;98990.69;;;25.87;17.17
14293;BME280;62290;59.420;17.842;2023-03-15T03:02:43;98994.59;;;25.85;17.11
14293;BME280;62290;59.420;17.842;2023-03-15T03:05:13;99007.25;;;25.84;17.22
14293;BME280;62290;59.420;17.842;2023-03-15T03:07:42;99016.19;;;25.85;17.07
14293;BME280;62290;59.420;17.842;2023-03-15T03:10:13;99018.72;;;25.86;17.45
14293;BME280;62290;59.420;17.842;2023-03-15T03:12:54;99001.69;;;25.71;17.16
14293;BME280;62290;59.420;17.842;2023-03-15T03:15:35;99029.03;;;25.83;17.53
14293;BME280;62290;59.420;17.842;2023-03-15T03:18:04;99030.91;;;25.82;17.33
14293;BME280;62290;59.420;17.842;2023-03-15T03:20:32;99035.28;;;25.83;17.35
14293;BME280;62290;59.420;17.842;2023-03-15T03:23:00;99033.59;;;25.82;17.37
14293;BME280;62290;59.420;17.842;2023-03-15T03:25:32;99036.13;;;25.84;17.35
14293;BME280;62290;59.420;17.842;2023-03-15T03:28:02;99042.53;;;25.83;17.12
14293;BME280;62290;59.420;17.842;2023-03-15T03:30:33;99044.22;;;25.84;17.25
14293;BME280;62290;59.420;17.842;2023-03-15T03:33:03;99038.81;;;25.84;17.15
14293;BME280;62290;59.420;17.842;2023-03-15T03:35:31;99047.72;;;25.84;17.31
14293;BME280;62290;59.420;17.842;2023-03-15T03:37:59;99051.47;;;25.83;17.35
14293;BME280;62290;59.420;17.842;2023-03-15T03:40:32;99055.81;;;25.84;17.38
14293;BME280;62290;59.420;17.842;2023-03-15T03:43:01;99063.09;;;25.84;16.89
14293;BME280;62290;59.420;17.842;2023-03-15T03:45:30;99052.59;;;25.74;17.28
14293;BME280;62290;59.420;17.842;2023-03-15T03:47:59;99071.19;;;25.84;17.20
14293;BME280;62290;59.420;17.842;2023-03-15T03:50:28;99067.66;;;25.83;16.89
14293;BME280;62290;59.420;17.842;2023-03-15T03:52:57;99070.53;;;25.82;17.38
14293;BME280;62290;59.420;17.842;2023-03-15T03:55:30;99073.22;;;25.82;16.97
14293;BME280;62290;59.420;17.842;2023-03-15T03:57:59;99071.56;;;25.81;17.20
14293;BME280;62290;59.420;17.842;2023-03-15T04:00:38;99076.13;;;25.80;17.01
14293;BME280;62290;59.420;17.842;2023-03-15T04:03:08;99080.31;;;25.83;16.84
14293;BME280;62290;59.420;17.842;2023-03-15T04:05:41;99056.69;;;25.70;16.82
14293;BME280;62290;59.420;17.842;2023-03-15T04:08:13;99078.25;;;25.85;16.92
14293;BME280;62290;59.420;17.842;2023-03-15T04:10:42;99088.03;;;25.86;17.27
14293;BME280;62290;59.420;17.842;2023-03-15T04:13:10;99080.78;;;25.86;16.88
14293;BME280;62290;59.420;17.842;2023-03-15T04:15:38;99089.91;;;25.85;17.21
14293;BME280;62290;59.420;17.842;2023-03-15T04:18:08;99089.06;;;25.85;16.81
14293;BME280;62290;59.420;17.842;2023-03-15T04:20:41;99092.59;;;25.85;17.08
14293;BME280;62290;59.420;17.842;2023-03-15T04:23:12;99099.69;;;25.86;17.18
14293;BME280;62290;59.420;17.842;2023-03-15T04:25:59;99098.00;;;25.85;16.78
14293;BME280;62290;59.420;17.842;2023-03-15T04:28:46;99098.00;;;25.85;17.11
14293;BME280;62290;59.420;17.842;2023-03-15T04:31:32;99094.28;;;25.86;16.75
14293;BME280;62290;59.420;17.842;2023-03-15T04:34:18;99100.50;;;25.87;16.63
14293;BME280;62290;59.420;17.842;2023-03-15T04:37:01;99103.00;;;25.88;16.77
14293;BME280;62290;59.420;17.842;2023-03-15T04:39:37;99093.06;;;25.89;17.04
14293;BME280;62290;59.420;17.842;2023-03-15T04:42:27;99101.34;;;25.87;16.65
14293;BME280;62290;59.420;17.842;2023-03-15T04:45:24;99108.59;;;25.87;17.16
14293;BME280;62290;59.420;17.842;2023-03-15T04:48:19;99120.22;;;25.87;16.94
14293;BME280;62290;59.420;17.842;2023-03-15T04:51:07;99113.97;;;25.87;16.79
14293;BME280;62290;59.420;17.842;2023-03-15T04:53:49;99119.22;;;25.88;16.74
14293;BME280;62290;59.420;17.842;2023-03-15T04:56:32;99121.91;;;25.88;16.99
14293;BME280;62290;59.420;17.842;2023-03-15T04:59:08;99137.06;;;25.89;17.07
14293;BME280;62290;59.420;17.842;2023-03-15T05:02:14;99120.22;;;25.87;16.72
14293;BME280;62290;59.420;17.842;2023-03-15T05:05:01;99134.75;;;25.86;16.71
14293;BME280;62290;59.420;17.842;2023-03-15T05:07:44;99136.63;;;25.86;16.98
14293;BME280;62290;59.420;17.842;2023-03-15T05:10:36;99138.25;;;25.87;16.56
14293;BME280;62290;59.420;17.842;2023-03-15T05:13:21;99139.09;;;25.87;16.99
14293;BME280;62290;59.420;17.842;2023-03-15T05:16:10;99142.84;;;25.86;16.97
14293;BME280;62290;59.420;17.842;2023-03-15T05:18:49;99148.25;;;25.86;16.91
14293;BME280;62290;59.420;17.842;2023-03-15T05:21:37;99143.03;;;25.85;17.05
14293;BME280;62290;59.420;17.842;2023-03-15T05:24:24;99151.97;;;25.85;16.67
14293;BME280;62290;59.420;17.842;2023-03-15T05:27:14;99153.81;;;25.85;16.52
14293;BME280;62290;59.420;17.842;2023-03-15T05:30:09;99163.13;;;25.82;16.56
14293;BME280;62290;59.420;17.842;2023-03-15T05:32:56;99170.38;;;25.82;16.84
14293;BME280;62290;59.420;17.842;2023-03-15T05:35:39;99170.38;;;25.82;16.54
14293;BME280;62290;59.420;17.842;2023-03-15T05:38:30;99168.72;;;25.81;17.02
14293;BME280;62290;59.420;17.842;2023-03-15T05:41:07;99175.78;;;25.82;17.02
14293;BME280;62290;59.420;17.842;2023-03-15T05:44:02;99121.38;;;25.41;16.91
14293;BME280;62290;59.420;17.842;2023-03-15T05:46:59;99191.50;;;25.78;16.92
14293;BME280;62290;59.420;17.842;2023-03-15T05:49:44;99197.06;;;25.76;16.57
14293;BME280;62290;59.420;17.842;2023-03-15T05:52:38;99200.81;;;25.75;17.00
14293;BME280;62290;59.420;17.842;2023-03-15T05:55:17;99205.16;;;25.76;16.70
14293;BME280;62290;59.420;17.842;2023-03-15T05:58:04;99204.31;;;25.76;17.12
14293;BME280;62290;59.420;17.842;2023-03-15T06:00:52;99212.41;;;25.76;16.97
14293;BME280;62290;59.420;17.842;2023-03-15T06:03:39;99211.59;;;25.75;17.08
14293;BME280;62290;59.420;17.842;2023-03-15T06:06:15;99217.81;;;25.76;16.87
14293;BME280;62290;59.420;17.842;2023-03-15T06:08:43;99222.84;;;25.79;16.79
14293;BME280;62290;59.420;17.842;2023-03-15T06:11:11;99234.31;;;25.81;16.78
14293;BME280;62290;59.420;17.842;2023-03-15T06:13:39;99226.59;;;25.78;16.70
14293;BME280;62290;59.420;17.842;2023-03-15T06:16:16;99238.69;;;25.82;16.59
14293;BME280;62290;59.420;17.842;2023-03-15T06:18:47;99247.63;;;25.83;16.65
14293;BME280;62290;59.420;17.842;2023-03-15T06:21:15;99256.72;;;25.82;17.08
14293;BME280;62290;59.420;17.842;2023-03-15T06:23:43;99261.75;;;25.85;16.94
14293;BME280;62290;59.420;17.842;2023-03-15T06:26:11;99264.16;;;25.80;16.98
14293;BME280;62290;59.420;17.842;2023-03-15T06:28:40;99271.53;;;25.86;16.99
14293;BME280;62290;59.420;17.842;2023-03-15T06:31:09;99273.19;;;25.87;16.98
14293;BME280;62290;59.420;17.842;2023-03-15T06:33:48;99275.75;;;25.88;16.62
14293;BME280;62290;59.420;17.842;2023-03-15T06:36:16;99278.44;;;25.88;16.75
14293;BME280;62290;59.420;17.842;2023-03-15T06:38:44;99287.19;;;25.90;17.00
14293;BME280;62290;59.420;17.842;2023-03-15T06:41:12;99279.72;;;25.92;17.01
14293;BME280;62290;59.420;17.842;2023-03-15T06:43:41;99278.72;;;25.93;17.03
14293;BME280;62290;59.420;17.842;2023-03-15T06:46:10;99272.28;;;25.94;17.06
14293;BME280;62290;59.420;17.842;2023-03-15T06:48:39;99282.91;;;25.96;16.85
14293;BME280;62290;59.420;17.842;2023-03-15T06:51:10;99268.66;;;25.87;16.97
14293;BME280;62290;59.420;17.842;2023-03-15T06:53:38;99289.63;;;26.00;16.61
14293;BME280;62290;59.420;17.842;2023-03-15T06:56:06;99284.88;;;26.02;16.64
14293;BME280;62290;59.420;17.842;2023-03-15T06:58:34;99289.09;;;26.04;17.16
14293;BME280;62290;59.420;17.842;2023-03-15T07:01:02;99289.72;;;26.06;16.71
14293;BME280;62290;59.420;17.842;2023-03-15T07:03:30;99292.25;;;26.08;16.70
14293;BME280;62290;59.420;17.842;2023-03-15T07:05:58;99301.19;;;26.08;16.95
14293;BME280;62290;59.420;17.842;2023-03-15T07:08:28;99305.56;;;26.09;17.00
14293;BME280;62290;59.420;17.842;2023-03-15T07:10:56;99305.56;;;26.09;16.66
14293;BME280;62290;59.420;17.842;2023-03-15T07:13:24;99301.81;;;26.10;16.94
14293;BME280;62290;59.420;17.842;2023-03-15T07:15:52;99302.66;;;26.11;16.62
14293;BME280;62290;59.420;17.842;2023-03-15T07:18:21;99287.19;;;26.05;16.95
14293;BME280;62290;59.420;17.842;2023-03-15T07:20:54;99303.00;;;26.16;16.86
14293;BME280;62290;59.420;17.842;2023-03-15T07:23:23;99301.13;;;26.16;16.44
14293;BME280;62290;59.420;17.842;2023-03-15T07:25:52;99290.38;;;26.08;16.38
14293;BME280;62290;59.420;17.842;2023-03-15T07:28:23;99304.13;;;26.21;16.53
14293;BME280;62290;59.420;17.842;2023-03-15T08:04:49;99351.31;;;26.25;16.94
14293;BME280;62290;59.420;17.842;2023-03-15T08:07:18;99353.50;;;26.30;16.51
14293;BME280;62290;59.420;17.842;2023-03-15T08:09:46;99352.94;;;26.34;16.36
14293;BME280;62290;59.420;17.842;2023-03-15T08:12:14;99354.22;;;26.38;16.44
14293;BME280;62290;59.420;17.842;2023-03-15T08:14:42;99359.28;;;26.42;16.60
14293;BME280;62290;59.420;17.842;2023-03-15T08:17:10;99370.56;;;26.45;16.81
14293;BME280;62290;59.420;17.842;2023-03-15T08:19:38;99370.19;;;26.48;16.42
14293;BME280;62290;59.420;17.842;2023-03-15T08:22:08;99376.03;;;26.52;16.63
14293;BME280;62290;59.420;17.842;2023-03-15T08:24:36;99373.19;;;26.53;16.37
14293;BME280;62290;59.420;17.842;2023-03-15T08:27:05;99380.72;;;26.58;16.41
14293;BME280;62290;59.420;17.842;2023-03-15T08:29:33;99385.09;;;26.59;16.29
14293;BME280;62290;59.420;17.842;2023-03-15T08:32:01;99392.00;;;26.61;16.28
14293;BME280;62290;59.420;17.842;2023-03-15T08:34:29;99383.53;;;26.64;16.66
14293;BME280;62290;59.420;17.842;2023-03-15T08:36:58;99399.34;;;26.67;16.45
14293;BME280;62290;59.420;17.842;2023-03-15T08:39:28;99397.97;;;26.71;16.24
14293;BME280;62290;59.420;17.842;2023-03-15T08:41:56;99388.84;;;26.72;16.24
14293;BME280;62290;59.420;17.842;2023-03-15T08:44:24;99398.44;;;26.75;16.42
14293;BME280;62290;59.420;17.842;2023-03-15T08:46:52;99404.53;;;26.77;17.31
14293;BME280;62290;59.420;17.842;2023-03-15T08:49:20;99402.28;;;26.80;18.17
14293;BME280;62290;59.420;17.842;2023-03-15T08:51:48;99407.16;;;26.85;18.61
14293;BME280;62290;59.420;17.842;2023-03-15T08:54:16;99408.44;;;26.89;20.03
14293;BME280;62290;59.420;17.842;2023-03-15T08:56:46;99415.63;;;26.96;22.02
14293;BME280;62290;59.420;17.842;2023-03-15T08:59:14;99419.66;;;27.01;23.42
14293;BME280;62290;59.420;17.842;2023-03-15T09:01:56;99423.66;;;27.05;23.80
14293;BME280;62290;59.420;17.842;2023-03-15T09:04:24;99433.06;;;27.09;25.21
14293;BME280;62290;59.420;17.842;2023-03-15T09:06:52;99418.97;;;27.13;25.82
14293;BME280;62290;59.420;17.842;2023-03-15T09:09:20;99431.09;;;27.17;26.68
14293;BME280;62290;59.420;17.842;2023-03-15T09:11:50;99431.56;;;27.21;27.74
14293;BME280;62290;59.420;17.842;2023-03-15T09:14:18;99432.41;;;27.21;26.97
14293;BME280;62290;59.420;17.842;2023-03-15T09:16:46;99433.91;;;27.24;27.12
14293;BME280;62290;59.420;17.842;2023-03-15T09:19:14;99452.47;;;27.27;27.42
14293;BME280;62290;59.420;17.842;2023-03-15T09:21:42;99449.56;;;27.28;27.95
14293;BME280;62290;59.420;17.842;2023-03-15T09:24:13;99458.31;;;27.30;27.42
14293;BME280;62290;59.420;17.842;2023-03-15T09:26:41;99461.50;;;27.34;29.82
14293;BME280;62290;59.420;17.842;2023-03-15T09:29:10;99458.59;;;27.35;28.78
14293;BME280;62290;59.420;17.842;2023-03-15T09:31:38;99468.59;;;27.35;28.83
14293;BME280;62290;59.420;17.842;2023-03-15T09:34:06;99469.78;;;27.32;28.24
14293;BME280;62290;59.420;17.842;2023-03-15T09:36:34;99475.50;;;27.37;27.27
14293;BME280;62290;59.420;17.842;2023-03-15T09:39:02;99485.28;;;27.38;26.63
14293;BME280;62290;59.420;17.842;2023-03-15T09:41:42;99485.13;;;27.40;25.77
14293;BME280;62290;59.420;17.842;2023-03-15T09:44:20;99495.97;;;27.40;24.73
14293;BME280;62290;59.420;17.842;2023-03-15T09:47:02;99504.22;;;27.38;24.37
14293;BME280;62290;59.420;17.842;2023-03-15T09:49:40;99505.41;;;27.36;23.94
14293;BME280;62290;59.420;17.842;2023-03-15T09:52:25;99502.91;;;27.34;23.11
14293;BME280;62290;59.420;17.842;2023-03-15T09:54:57;99514.75;;;27.33;23.04
14293;BME280;62290;59.420;17.842;2023-03-15T09:57:35;99522.50;;;27.36;22.48
14293;BME280;62290;59.420;17.842;2023-03-15T10:00:11;99514.19;;;27.38;22.08
14293;BME280;62290;59.420;17.842;2023-03-15T10:02:44;99518.59;;;27.39;22.27
14293;BME280;62290;59.420;17.842;2023-03-15T10:05:18;99484.44;;;27.23;21.87
14293;BME280;62290;59.420;17.842;2023-03-15T10:07:47;99519.25;;;27.41;21.66
14293;BME280;62290;59.420;17.842;2023-03-15T10:10:17;99523.44;;;27.43;21.17
14293;BME280;62290;59.420;17.842;2023-03-15T10:12:50;99531.41;;;27.45;20.94
14293;BME280;62290;59.420;17.842;2023-03-15T10:15:27;99523.94;;;27.47;20.73
14293;BME280;62290;59.420;17.842;2023-03-15T10:18:21;99528.13;;;27.49;20.43
14293;BME280;62290;59.420;17.842;2023-03-15T10:20:59;99533.34;;;27.51;20.30
14293;BME280;62290;59.420;17.842;2023-03-15T10:23:36;99537.09;;;27.50;19.76
14293;BME280;62290;59.420;17.842;2023-03-15T10:26:10;99539.13;;;27.48;19.46
14293;BME280;62290;59.420;17.842;2023-03-15T10:28:41;99550.25;;;27.53;19.32
14293;BME280;62290;59.420;17.842;2023-03-15T10:31:13;99563.59;;;27.54;19.20
14293;BME280;62290;59.420;17.842;2023-03-15T10:33:55;99541.53;;;27.43;18.82
14293;BME280;62290;59.420;17.842;2023-03-15T10:36:24;99566.28;;;27.54;18.76
14293;BME280;62290;59.420;17.842;2023-03-15T10:38:52;99558.16;;;27.54;18.69
14293;BME280;62290;59.420;17.842;2023-03-15T10:41:28;99567.97;;;27.55;18.51
14293;BME280;62290;59.420;17.842;2023-03-15T10:43:59;99576.25;;;27.54;18.54
14293;BME280;62290;59.420;17.842;2023-03-15T10:46:30;99581.50;;;27.55;18.23
14293;BME280;62290;59.420;17.842;2023-03-15T10:48:59;99574.97;;;27.50;18.17
14293;BME280;62290;59.420;17.842;2023-03-15T10:51:38;99582.53;;;27.54;17.90
14293;BME280;62290;59.420;17.842;2023-03-15T10:54:11;99593.16;;;27.56;17.99
14293;BME280;62290;59.420;17.842;2023-03-15T10:56:44;99589.78;;;27.54;17.99
14293;BME280;62290;59.420;17.842;2023-03-15T10:59:15;99600.63;;;27.54;17.68
14293;BME280;62290;59.420;17.842;2023-03-15T11:01:47;99599.59;;;27.55;17.51
14293;BME280;62290;59.420;17.842;2023-03-15T11:04:18;99605.88;;;27.55;17.79
14293;BME280;62290;59.420;17.842;2023-03-15T11:06:48;99602.97;;;27.57;17.61
14293;BME280;62290;59.420;17.842;2023-03-15T11:09:19;99605.66;;;27.57;17.31
14293;BME280;62290;59.420;17.842;2023-03-15T11:11:55;99602.75;;;27.58;17.49
14293;BME280;62290;59.420;17.842;2023-03-15T11:14:24;99616.28;;;27.58;17.51
14293;BME280;62290;59.420;17.842;2023-03-15T11:16:55;99617.97;;;27.60;17.30
14293;BME280;62290;59.420;17.842;2023-03-15T11:19:26;99621.34;;;27.62;17.32
14293;BME280;62290;59.420;17.842;2023-03-15T11:21:57;99630.13;;;27.64;17.37
14293;BME280;62290;59.420;17.842;2023-03-15T11:24:28;99618.63;;;27.62;17.33
14293;BME280;62290;59.420;17.842;2023-03-15T11:26:58;99637.22;;;27.65;17.16
14293;BME280;62290;59.420;17.842;2023-03-15T11:29:29;99640.75;;;27.65;17.24
14293;BME280;62290;59.420;17.842;2023-03-15T11:32:02;99639.56;;;27.68;16.97
14293;BME280;62290;59.420;17.842;2023-03-15T11:34:38;99643.75;;;27.70;17.20
14293;BME280;62290;59.420;17.842;2023-03-15T11:37:14;99654.22;;;27.73;17.28
14293;BME280;62290;59.420;17.842;2023-03-15T11:39:46;99645.88;;;27.75;17.40
14293;BME280;62290;59.420;17.842;2023-03-15T11:42:31;99648.44;;;27.76;16.86
14293;BME280;62290;59.420;17.842;2023-03-15T11:45:03;99664.66;;;27.76;17.01
14293;BME280;62290;59.420;17.842;2023-03-15T11:47:40;99677.16;;;27.77;16.90
14293;BME280;62290;59.420;17.842;2023-03-15T11:50:12;99672.59;;;27.78;16.71
14293;BME280;62290;59.420;17.842;2023-03-15T11:52:41;99678.00;;;27.78;16.91
14293;BME280;62290;59.420;17.842;2023-03-15T11:55:16;99689.84;;;27.77;16.54
14293;BME280;62290;59.420;17.842;2023-03-15T11:57:46;99682.56;;;27.77;16.44
14293;BME280;62290;59.420;17.842;2023-03-15T12:03:32;99701.38;;;27.79;16.31
14293;BME280;62290;59.420;17.842;2023-03-15T12:08:53;99699.88;;;27.76;16.33
14293;BME280;62290;59.420;17.842;2023-03-15T12:11:39;99705.44;;;27.75;16.22
14293;BME280;62290;59.420;17.842;2023-03-15T12:14:26;99705.44;;;27.75;16.38
14293;BME280;62290;59.420;17.842;2023-03-15T12:17:35;99712.91;;;27.73;16.11
14293;BME280;62290;59.420;17.842;2023-03-15T12:20:17;99677.25;;;27.54;16.24
14293;BME280;62290;59.420;17.842;2023-03-15T12:22:49;99716.84;;;27.70;16.01
14293;BME280;62290;59.420;17.842;2023-03-15T12:25:21;99698.88;;;27.54;15.85
14293;BME280;62290;59.420;17.842;2023-03-15T12:27:51;99717.84;;;27.69;16.06
14293;BME280;62290;59.420;17.842;2023-03-15T12:30:23;99730.56;;;27.69;16.06
14293;BME280;62290;59.420;17.842;2023-03-15T12:32:53;99741.41;;;27.69;16.01
14293;BME280;62290;59.420;17.842;2023-03-15T12:35:28;99742.22;;;27.69;15.86
14293;BME280;62290;59.420;17.842;2023-03-15T12:37:58;99738.56;;;27.62;15.93
14293;BME280;62290;59.420;17.842;2023-03-15T12:40:38;99703.38;;;27.47;15.94
14293;BME280;62290;59.420;17.842;2023-03-15T12:43:11;99746.97;;;27.67;15.71
14293;BME280;62290;59.420;17.842;2023-03-15T12:45:43;99747.81;;;27.68;15.56
14293;BME280;62290;59.420;17.842;2023-03-15T12:48:19;99746.97;;;27.67;15.72
14293;BME280;62290;59.420;17.842;2023-03-15T12:50:53;99753.22;;;27.68;15.55
14293;BME280;62290;59.420;17.842;2023-03-15T12:53:27;99757.81;;;27.67;15.40
14293;BME280;62290;59.420;17.842;2023-03-15T12:56:28;99763.41;;;27.66;15.62
14293;BME280;62290;59.420;17.842;2023-03-15T12:59:04;99767.13;;;27.65;15.70
14293;BME280;62290;59.420;17.842;2023-03-15T13:01:37;99770.75;;;27.57;15.58
14293;BME280;62290;59.420;17.842;2023-03-15T13:04:05;99778.16;;;27.63;15.60
14293;BME280;62290;59.420;17.842;2023-03-15T13:06:41;99779.81;;;27.64;15.42
14293;BME280;62290;59.420;17.842;2023-03-15T13:09:21;99782.53;;;27.64;15.62
14293;BME280;62290;59.420;17.842;2023-03-15T13:11:55;99778.81;;;27.65;15.67
14293;BME280;62290;59.420;17.842;2023-03-15T13:14:35;99793.00;;;27.67;15.41
14293;BME280;62290;59.420;17.842;2023-03-15T13:17:11;99801.09;;;27.67;15.68
14293;BME280;62290;59.420;17.842;2023-03-15T13:19:48;99802.81;;;27.68;15.66
14293;BME280;62290;59.420;17.842;2023-03-15T13:22:26;99799.91;;;27.70;15.67
14293;BME280;62290;59.420;17.842;2023-03-15T13:25:03;99812.59;;;27.69;15.58
14293;BME280;62290;59.420;17.842;2023-03-15T13:27:44;99814.47;;;27.69;15.09
14293;BME280;62290;59.420;17.842;2023-03-15T13:30:31;99821.56;;;27.70;15.98
14293;BME280;62290;59.420;17.842;2023-03-15T13:33:03;99819.03;;;27.68;15.75
14293;BME280;62290;59.420;17.842;2023-03-15T13:35:32;99825.66;;;27.66;15.82
14293;BME280;62290;59.420;17.842;2023-03-15T13:38:11;99831.06;;;27.66;16.07
14293;BME280;62290;59.420;17.842;2023-03-15T13:40:48;99824.31;;;27.62;16.19
14293;BME280;62290;59.420;17.842;2023-03-15T13:43:17;99833.94;;;27.64;15.97
14293;BME280;62290;59.420;17.842;2023-03-15T13:45:45;99838.53;;;27.64;15.91
14293;BME280;62290;59.420;17.842;2023-03-15T13:48:13;99842.25;;;27.63;15.89
14293;BME280;62290;59.420;17.842;2023-03-15T13:50:41;99845.81;;;27.63;16.02
14293;BME280;62290;59.420;17.842;2023-03-15T13:53:20;99854.78;;;27.64;15.88
14293;BME280;62290;59.420;17.842;2023-03-15T13:56:09;99848.69;;;27.62;15.72
14293;BME280;62290;59.420;17.842;2023-03-15T13:58:42;99859.50;;;27.62;15.89
14293;BME280;62290;59.420;17.842;2023-03-15T14:01:12;99855.16;;;27.61;15.86
14293;BME280;62290;59.420;17.842;2023-03-15T14:03:41;99854.47;;;27.58;15.53